Skip Navigation LinksHome page > Weather > Current weather Skip Navigation Links

Current Weather

New Tokyo International (Narita), Tokyo

For information only: do not use for flight planning or navigation.
Latest weather
Observation time Saturday, October 10, 2015 6:00 AM JST
Local time Saturday, October 10, 2015 6:42 AM JST
Flight conditions Visual Meteorological Conditions
Wind direction Southwest (220°)
Wind speed 2 mph
Visibility 5.6 mi.
Present weather MIFG
Sky condition
Ceiling unlimited
Cloud layer scattered clouds 0 ft.
Cloud layer few clouds 3,000 ft.
Temperature 54°F
Dewpoint 52°F
Altimeter 29.88 in.Hg
Derived measurements
Relative humidity 94%
Density altitude 14 ft.
No significant changes expected in the next two hours.
METAR RJAA 092100Z 22002KT 9000 R34L/P1800N R34R/1400VP1800D MIFG FEW030 SCT/// 12/11 Q1012 NOSIG RMK 1CU030 A2989


Location code

InnerDrive.Weather 4.0.5722.1 Release CLR 4.0.30319.34014
Copyright ©2015 Inner Drive Technology. All rights reserved. Portions Copyright ©1986-2015 David Braverman.

Find weather

Site navigation

Skip Navigation Links

Place info

Page info

PayPal - The safer, easier way to pay online!

Return home.

Copyright ©2015 Inner Drive Technology. Purveyors of fine, hand-crafted computer software. Page printed 2015-10-09T21:42:03 UTC.